Time;durP1;ratioP1;P1;durP2;ratioP2;P2;SDS_P1;SDS_P2;PMS_P1;PMS_P2;Temp;Humidity;BMP_temperature;BMP_pressure;BME280_temperature;BME280_humidity;BME280_pressure;Samples;Min_cycle;Max_cycle;Signal;HPM_P1;HPM_P2
2021/12/25 00:00:37;;;;;;;8.50;6.40;;;;;;;9.54;74.06;101808.88;5087416;28;20086;-70
2021/12/25 00:03:04;;;;;;;9.32;6.88;;;;;;;9.58;73.89;101810.75;5089942;28;20492;-70
2021/12/25 00:05:32;;;;;;;13.23;9.98;;;;;;;9.54;73.66;101805.34;5088980;28;20044;-70
2021/12/25 00:08:00;;;;;;;14.40;9.85;;;;;;;9.51;73.66;101803.50;5090189;28;20052;-70
2021/12/25 00:10:30;;;;;;;15.43;11.00;;;;;;;9.42;73.46;101805.78;5089397;28;20040;-70
2021/12/25 00:12:58;;;;;;;11.77;9.43;;;;;;;9.39;73.44;101810.94;5089443;28;20114;-70
2021/12/25 00:15:26;;;;;;;14.60;9.43;;;;;;;9.36;73.46;101810.84;5089429;28;20036;-70
2021/12/25 00:17:55;;;;;;;11.48;8.95;;;;;;;9.40;73.43;101810.09;5071111;28;20135;-70
2021/12/25 00:20:22;;;;;;;5.80;4.32;;;;;;;9.42;73.25;101813.69;5087913;28;20040;-69
2021/12/25 00:22:50;;;;;;;8.40;6.57;;;;;;;9.44;73.28;101811.13;5088266;28;20051;-71
2021/12/25 00:25:19;;;;;;;11.27;8.35;;;;;;;9.42;73.20;101807.53;5064408;28;20052;-69
2021/12/25 00:27:55;;;;;;;10.60;8.68;;;;;;;9.41;73.08;101808.38;5088064;28;20046;-71
2021/12/25 00:30:31;;;;;;;9.10;7.10;;;;;;;9.39;72.91;101812.66;5089005;28;20484;-71
2021/12/25 00:33:05;;;;;;;11.52;8.52;;;;;;;9.36;73.15;101810.84;5087554;28;20044;-70
2021/12/25 00:35:34;;;;;;;11.15;7.93;;;;;;;9.32;73.09;101815.94;5088167;28;20085;-70
2021/12/25 00:38:05;;;;;;;12.25;9.32;;;;;;;9.26;73.13;101808.69;5088514;28;20126;-70
2021/12/25 00:40:33;;;;;;;9.38;7.15;;;;;;;9.27;73.63;101810.47;5068861;28;20048;-70
2021/12/25 00:43:00;;;;;;;11.30;9.48;;;;;;;9.33;73.83;101810.72;5067513;28;20070;-70
2021/12/25 00:45:28;;;;;;;13.93;11.40;;;;;;;9.37;73.89;101811.75;5067519;28;20064;-70
2021/12/25 00:47:56;;;;;;;13.13;11.10;;;;;;;9.39;73.86;101805.66;5067953;28;20045;-70
2021/12/25 00:50:25;;;;;;;18.77;16.90;;;;;;;9.39;73.57;101808.31;5067324;28;20442;-70
2021/12/25 00:52:52;;;;;;;65.00;58.67;;;;;;;9.29;73.43;101807.91;5067637;28;20032;-70
2021/12/25 00:55:20;;;;;;;17.80;15.70;;;;;;;9.25;73.66;101812.19;5087586;28;20075;-69
2021/12/25 00:57:48;;;;;;;14.40;9.52;;;;;;;9.24;73.89;101807.75;5104309;28;20486;-69
2021/12/25 01:00:16;;;;;;;7.82;5.90;;;;;;;9.27;74.26;101799.94;5082828;28;20162;-70
2021/12/25 01:02:46;;;;;;;7.85;5.18;;;;;;;9.33;74.74;101802.81;5077442;28;20041;-70
2021/12/25 01:05:16;;;;;;;6.60;4.95;;;;;;;9.36;74.46;101802.94;5099577;28;20090;-70
2021/12/25 01:07:46;;;;;;;8.13;5.18;;;;;;;9.35;74.46;101795.88;5086973;28;20036;-71
2021/12/25 01:10:20;;;;;;;8.18;3.97;;;;;;;9.34;74.77;101799.34;5088015;28;20044;-69
2021/12/25 01:12:59;;;;;;;7.13;4.90;;;;;;;9.37;74.79;101803.84;5087607;28;20047;-69
2021/12/25 01:15:36;;;;;;;7.38;5.63;;;;;;;9.38;74.94;101798.63;5087554;28;20048;-69
2021/12/25 01:24:16;;;;;;;20.33;18.42;;;;;;;9.10;74.58;101803.69;5085684;28;20040;-69
2021/12/25 01:36:00;;;;;;;10.10;7.78;;;;;;;9.08;74.72;101797.47;5029728;28;20517;-70
2021/12/25 01:39:00;;;;;;;5.93;4.50;;;;;;;9.07;75.08;101790.38;5039945;28;20046;-69
2021/12/25 01:47:57;;;;;;;8.15;5.55;;;;;;;9.31;75.47;101791.34;5061124;28;20053;-70
2021/12/25 01:50:28;;;;;;;6.90;5.03;;;;;;;9.39;75.38;101794.22;5097982;28;20086;-71
2021/12/25 01:52:57;;;;;;;11.80;10.07;;;;;;;9.39;75.33;101794.22;5074500;28;20048;-70
2021/12/25 01:55:30;;;;;;;7.80;5.97;;;;;;;9.38;74.97;101790.72;5074768;28;20044;-69
2021/12/25 01:57:59;;;;;;;10.38;6.43;;;;;;;9.34;74.96;101794.06;5085811;28;20093;-70
2021/12/25 02:00:33;;;;;;;7.72;5.55;;;;;;;9.32;74.78;101802.78;5082079;28;20048;-70
2021/12/25 02:03:00;;;;;;;7.90;5.88;;;;;;;9.26;74.94;101795.50;5077088;28;20101;-70
2021/12/25 02:05:28;;;;;;;6.43;5.05;;;;;;;9.22;74.84;101798.88;5079544;28;20036;-70
2021/12/25 02:07:56;;;;;;;6.97;5.18;;;;;;;9.20;74.98;101800.56;5070730;28;20617;-69
2021/12/25 02:10:26;;;;;;;7.75;5.88;;;;;;;9.20;74.77;101800.56;5086964;28;20037;-69
2021/12/25 02:12:54;;;;;;;8.80;6.72;;;;;;;9.23;75.17;101799.78;5086960;28;20044;-69
2021/12/25 02:15:24;;;;;;;7.43;5.65;;;;;;;9.22;75.33;101805.88;5070104;28;20492;-69
2021/12/25 02:18:13;;;;;;;10.15;6.72;;;;;;;9.21;75.44;101804.97;5069318;28;20047;-70
2021/12/25 02:21:19;;;;;;;;;;;;;;;9.17;75.24;101797.81;5047100;28;20071;-69
2021/12/25 02:23:48;;;;;;;12.90;10.50;;;;;;;9.17;75.18;101808.34;5081324;28;19920;-69
2021/12/25 02:26:17;;;;;;;11.88;8.88;;;;;;;9.18;75.33;101803.16;5070222;28;20090;-69
2021/12/25 02:28:45;;;;;;;12.85;9.45;;;;;;;9.23;75.66;101813.84;5069778;28;20093;-69
2021/12/25 02:31:15;;;;;;;15.48;12.63;;;;;;;9.27;75.43;101815.75;5069334;28;20098;-70
2021/12/25 02:33:43;;;;;;;15.38;12.77;;;;;;;9.28;75.49;101808.75;5070104;28;20098;-68
2021/12/25 02:36:13;;;;;;;16.05;13.88;;;;;;;9.29;75.64;101811.44;5087205;28;20056;-69
2021/12/25 02:38:45;;;;;;;23.63;21.27;;;;;;;9.26;75.19;101805.16;5069280;28;20029;-69
2021/12/25 02:41:14;;;;;;;21.08;19.02;;;;;;;9.22;75.19;101816.44;5070069;28;20083;-69
2021/12/25 02:43:44;;;;;;;19.23;15.50;;;;;;;9.17;75.12;101811.00;5068159;28;20044;-70
2021/12/25 02:46:14;;;;;;;15.35;10.80;;;;;;;9.14;75.50;101809.13;5086014;28;20039;-70
2021/12/25 02:48:43;;;;;;;19.85;17.77;;;;;;;9.20;75.83;101811.09;5069473;28;20066;-70
2021/12/25 02:51:12;;;;;;;16.73;13.13;;;;;;;9.23;75.89;101811.22;5086048;28;20046;-70
2021/12/25 02:53:41;;;;;;;14.68;13.10;;;;;;;9.24;76.00;101810.38;5070903;28;20053;-71
2021/12/25 02:56:10;;;;;;;12.07;9.95;;;;;;;9.23;75.91;101815.59;5071077;28;20090;-70
2021/12/25 02:58:41;;;;;;;26.65;22.80;;;;;;;9.17;76.18;101814.53;5069638;28;20090;-70
2021/12/25 03:01:13;;;;;;;11.23;9.75;;;;;;;9.19;76.38;101819.81;5052668;28;20040;-70
2021/12/25 03:03:42;;;;;;;12.57;9.40;;;;;;;9.24;76.34;101815.66;5084245;28;20112;-69
2021/12/25 03:06:12;;;;;;;9.95;7.88;;;;;;;9.26;76.55;101811.31;5085536;28;20045;-69
2021/12/25 03:08:41;;;;;;;12.02;7.55;;;;;;;9.27;76.77;101815.75;5086197;28;20037;-70
2021/12/25 03:11:13;;;;;;;8.35;6.38;;;;;;;9.27;76.52;101810.47;5069171;28;20043;-70
2021/12/25 03:13:45;;;;;;;8.73;6.25;;;;;;;9.28;76.53;101817.56;5085464;28;20032;-70
2021/12/25 03:16:16;;;;;;;9.15;6.90;;;;;;;9.31;76.52;101812.41;5086007;28;20109;-69
2021/12/25 03:18:48;;;;;;;10.15;7.18;;;;;;;9.36;76.62;101810.84;5068555;28;20036;-70
2021/12/25 03:21:17;;;;;;;9.98;7.85;;;;;;;9.34;76.57;101808.97;5069622;28;20131;-69
2021/12/25 03:23:47;;;;;;;11.10;8.93;;;;;;;9.34;76.55;101827.41;5069439;28;20029;-70
2021/12/25 03:26:17;;;;;;;12.35;9.50;;;;;;;9.31;76.42;101822.06;5069095;28;20122;-70
2021/12/25 03:28:46;;;;;;;12.15;9.75;;;;;;;9.27;76.44;101825.38;5068417;28;20523;-70
2021/12/25 03:31:21;;;;;;;11.95;9.48;;;;;;;9.28;76.64;101830.72;5085565;28;20041;-69
2021/12/25 03:33:51;;;;;;;14.30;10.82;;;;;;;9.26;76.80;101824.50;5085210;28;20060;-69
2021/12/25 03:36:20;;;;;;;15.77;12.60;;;;;;;9.26;76.87;101828.84;5069816;28;20036;-69
2021/12/25 03:38:48;;;;;;;17.85;14.25;;;;;;;9.25;77.16;101830.63;5085636;28;20102;-70
2021/12/25 03:41:19;;;;;;;25.48;21.13;;;;;;;9.26;77.02;101839.41;5068551;28;20036;-70
2021/12/25 03:43:47;;;;;;;15.30;11.50;;;;;;;9.25;77.10;101835.91;5067338;28;20048;-70
2021/12/25 03:46:17;;;;;;;15.15;12.50;;;;;;;9.25;77.06;101830.63;5068452;28;20040;-70
2021/12/25 03:49:26;;;;;;;11.77;8.40;;;;;;;9.22;76.90;101842.75;5051516;28;20144;-70
2021/12/25 03:57:39;;;;;;;13.75;9.30;;;;;;;9.18;76.74;101852.31;5068017;28;20143;-69
2021/12/25 04:00:12;;;;;;;9.20;6.97;;;;;;;9.12;76.94;101852.06;5077137;28;20040;-71
2021/12/25 04:02:53;;;;;;;7.82;5.85;;;;;;;9.08;77.38;101852.78;5069683;28;20638;-70
2021/12/25 04:05:26;;;;;;;8.02;5.72;;;;;;;9.10;77.73;101853.75;5068636;28;20131;-70
2021/12/25 04:08:03;;;;;;;9.77;7.68;;;;;;;9.13;77.39;101851.19;5068715;28;20542;-70
2021/12/25 04:10:34;;;;;;;7.65;6.10;;;;;;;9.10;77.22;101856.38;5084658;28;20049;-70
2021/12/25 04:13:06;;;;;;;9.30;5.72;;;;;;;9.06;77.09;101857.97;5079905;28;20067;-70
2021/12/25 04:15:35;;;;;;;8.27;5.55;;;;;;;9.03;77.62;101854.34;5085026;28;20048;-70
2021/12/25 04:18:03;;;;;;;9.75;6.78;;;;;;;9.03;77.51;101863.13;5051832;28;20036;-70
2021/12/25 04:20:31;;;;;;;10.70;7.47;;;;;;;9.04;77.45;101864.94;5085153;28;20508;-70
2021/12/25 04:23:03;;;;;;;9.02;5.32;;;;;;;9.03;77.25;101868.41;5067580;28;20125;-70
2021/12/25 04:25:33;;;;;;;7.40;5.05;;;;;;;9.05;77.32;101868.47;5068888;28;20052;-70
2021/12/25 04:28:09;;;;;;;6.80;5.05;;;;;;;9.06;77.03;101868.50;5068445;28;20492;-70
2021/12/25 04:30:56;;;;;;;9.30;6.72;;;;;;;9.10;77.35;101866.91;5067258;28;20603;-70
2021/12/25 05:04:32;;;;;;;6.57;4.57;;;;;;;9.13;78.50;101853.84;5006281;28;20045;-70
2021/12/25 05:07:23;;;;;;;6.35;4.05;;;;;;;9.15;78.57;101857.44;5061217;28;20040;-70
2021/12/25 05:09:51;;;;;;;7.65;5.25;;;;;;;9.14;78.26;101874.97;5083456;28;20457;-69
2021/12/25 05:12:19;;;;;;;7.80;5.00;;;;;;;9.11;78.02;101880.16;5065757;28;20036;-69
2021/12/25 05:14:46;;;;;;;7.75;4.88;;;;;;;9.09;77.94;101886.19;5084677;28;20036;-70
2021/12/25 05:17:14;;;;;;;6.38;4.50;;;;;;;9.04;77.89;101877.19;5083883;28;20048;-69
2021/12/25 05:19:44;;;;;;;22.00;19.60;;;;;;;9.02;77.91;101886.78;5084103;28;20067;-71
2021/12/25 05:22:14;;;;;;;19.88;16.80;;;;;;;9.03;78.00;101892.09;5069029;28;20045;-69
2021/12/25 05:24:42;;;;;;;23.60;20.00;;;;;;;9.05;77.75;101889.53;5080579;28;20033;-70
2021/12/25 05:27:12;;;;;;;19.63;16.08;;;;;;;9.04;77.87;101893.00;5066417;28;20040;-70
2021/12/25 05:29:45;;;;;;;54.13;44.88;;;;;;;9.02;77.58;101897.31;5084311;28;20133;-70
2021/12/25 05:32:13;;;;;;;21.58;18.58;;;;;;;8.99;77.85;101898.06;5058821;28;20037;-70
2021/12/25 05:35:01;;;;;;;21.40;18.63;;;;;;;9.03;77.61;101904.38;5066569;28;20466;-69
2021/12/25 05:37:32;;;;;;;15.50;13.90;;;;;;;9.05;77.88;101900.97;5088203;28;20048;-70
2021/12/25 05:40:01;;;;;;;14.13;12.65;;;;;;;9.10;77.79;101907.31;5071991;28;20060;-69
2021/12/25 05:42:32;;;;;;;15.15;13.63;;;;;;;9.14;77.84;101908.31;5076344;28;20049;-69
2021/12/25 05:45:00;;;;;;;7.32;5.18;;;;;;;9.15;77.45;101907.50;5051441;28;20044;-69
2021/12/25 05:47:34;;;;;;;;;;;;;;;9.21;77.23;101913.00;5083945;28;20131;-69
2021/12/25 05:50:33;;;;;;;8.98;6.05;;;;;;;9.24;77.03;101913.13;5046963;28;19921;-69
2021/12/25 05:53:09;;;;;;;9.85;7.93;;;;;;;9.25;76.89;101901.75;5085554;28;20507;-69
2021/12/25 05:55:55;;;;;;;12.45;8.60;;;;;;;9.23;76.80;101906.06;5068140;28;20064;-69
2021/12/25 05:58:41;;;;;;;8.75;7.25;;;;;;;9.23;76.55;101918.34;5109598;28;20048;-69
2021/12/25 06:01:21;;;;;;;17.77;15.48;;;;;;;9.21;76.49;101913.00;5095331;28;20115;-69
2021/12/25 06:03:49;;;;;;;10.88;9.57;;;;;;;9.11;76.24;101916.13;5058727;28;20051;-70
2021/12/25 06:06:19;;;;;;;8.05;6.85;;;;;;;9.09;76.50;101915.16;5075809;28;20040;-70
2021/12/25 06:08:46;;;;;;;7.00;5.03;;;;;;;9.15;76.87;101915.38;5083910;28;20497;-70
2021/12/25 06:11:16;;;;;;;10.10;8.38;;;;;;;9.18;76.80;101916.44;5077122;28;20120;-70
2021/12/25 06:13:56;;;;;;;8.00;6.97;;;;;;;9.21;76.60;101913.00;5052755;28;20047;-70
2021/12/25 06:16:24;;;;;;;13.55;10.40;;;;;;;9.24;76.51;101912.22;5054697;28;20041;-70
2021/12/25 06:19:08;;;;;;;12.70;8.77;;;;;;;9.21;76.53;101913.00;5073501;28;20117;-70
2021/12/25 06:21:47;;;;;;;7.45;5.30;;;;;;;9.28;76.81;101917.69;5095098;28;20548;-70
2021/12/25 06:24:40;;;;;;;7.18;4.18;;;;;;;9.58;78.06;101918.84;5080238;28;20119;-71
2021/12/25 06:27:26;;;;;;;4.90;3.25;;;;;;;9.94;79.04;101915.81;5104376;27;20411;-69
2021/12/25 06:30:15;;;;;;;2.85;2.08;;;;;;;10.26;79.43;101923.16;5067477;28;20561;-70
2021/12/25 06:32:58;;;;;;;3.22;2.15;;;;;;;10.52;78.95;101916.16;5100465;28;20102;-70
2021/12/25 06:35:32;;;;;;;3.85;1.90;;;;;;;10.72;78.22;101916.81;5081370;28;20036;-69
2021/12/25 06:38:22;;;;;;;2.75;1.90;;;;;;;10.97;77.51;101919.41;5069610;28;20378;-70
2021/12/25 06:41:12;;;;;;;5.25;2.08;;;;;;;11.20;76.69;101917.53;5090286;28;20177;-71
2021/12/25 06:43:42;;;;;;;3.70;1.70;;;;;;;11.40;75.95;101920.78;5087865;28;20040;-70
2021/12/25 06:46:12;;;;;;;5.07;1.90;;;;;;;11.65;75.76;101922.44;5074546;28;20040;-70
2021/12/25 06:48:41;;;;;;;2.55;1.70;;;;;;;11.88;75.10;101916.97;5103581;28;20029;-70
2021/12/25 06:51:12;;;;;;;3.00;1.70;;;;;;;12.17;74.92;101919.56;5082479;28;20124;-70
2021/12/25 06:53:54;;;;;;;2.08;1.00;;;;;;;12.46;74.61;101918.59;5074393;28;20044;-70
2021/12/25 06:56:24;;;;;;;2.72;1.33;;;;;;;12.69;74.77;101925.38;5081129;28;20070;-70
2021/12/25 06:59:04;;;;;;;1.27;1.10;;;;;;;12.93;74.93;101926.88;5073936;28;20184;-70
2021/12/25 07:01:35;;;;;;;2.38;1.17;;;;;;;13.14;74.60;101928.31;5069084;28;20504;-70
2021/12/25 07:04:04;;;;;;;1.55;1.27;;;;;;;13.32;73.28;101934.94;5080751;28;20036;-70
2021/12/25 07:06:50;;;;;;;2.97;1.23;;;;;;;13.49;72.86;101934.44;5072238;28;20033;-70
2021/12/25 07:09:25;;;;;;;2.28;1.20;;;;;;;13.70;72.35;101938.44;5089197;28;20111;-71
2021/12/25 07:12:05;;;;;;;1.85;1.17;;;;;;;13.87;71.23;101937.00;5088628;28;20044;-70
2021/12/25 07:14:59;;;;;;;5.70;1.27;;;;;;;14.02;70.12;101929.38;5093850;27;20495;-70
2021/12/25 07:18:06;;;;;;;1.75;1.27;;;;;;;14.23;68.96;101937.78;5079588;28;20059;-70
2021/12/25 07:20:54;;;;;;;0.65;0.50;;;;;;;14.44;67.14;101939.97;5088741;28;20436;-70
2021/12/25 07:23:57;;;;;;;2.95;0.80;;;;;;;14.69;64.95;101941.31;5011749;28;20108;-70
2021/12/25 07:26:34;;;;;;;0.93;0.75;;;;;;;14.86;62.27;101942.50;5057265;28;20051;-70
2021/12/25 07:29:28;;;;;;;0.93;0.60;;;;;;;15.08;62.50;101936.69;5073345;28;20074;-70
2021/12/25 07:31:56;;;;;;;1.40;0.57;;;;;;;15.21;61.01;101932.44;5105562;28;20592;-70
2021/12/25 07:34:23;;;;;;;0.85;0.57;;;;;;;15.38;59.91;101944.22;5079544;28;20507;-70
2021/12/25 07:36:51;;;;;;;1.35;0.85;;;;;;;15.58;59.86;101951.63;5090077;28;20403;-71
2021/12/25 07:39:19;;;;;;;2.83;0.77;;;;;;;15.74;58.98;101957.22;5077025;28;20124;-70
2021/12/25 07:41:48;;;;;;;0.75;0.60;;;;;;;15.98;59.42;101956.63;5090569;28;20047;-71
2021/12/25 07:44:27;;;;;;;1.25;0.55;;;;;;;16.18;58.98;101962.19;5094376;28;20036;-71
2021/12/25 07:46:55;;;;;;;2.20;0.90;;;;;;;16.32;56.59;101953.50;5080970;28;20128;-70
2021/12/25 07:49:23;;;;;;;1.42;0.70;;;;;;;16.46;54.89;101969.66;5079568;28;20044;-71
2021/12/25 07:51:51;;;;;;;1.50;0.70;;;;;;;16.64;53.35;101956.53;5087183;28;20055;-70
2021/12/25 07:54:18;;;;;;;2.30;0.65;;;;;;;16.80;51.96;101957.59;5087111;28;20036;-71
2021/12/25 07:56:47;;;;;;;4.13;1.15;;;;;;;16.89;50.43;101954.97;5085910;28;20127;-71
2021/12/25 07:59:16;;;;;;;1.77;0.73;;;;;;;16.97;50.31;101960.38;5085267;28;20032;-70
2021/12/25 08:01:44;;;;;;;1.35;0.80;;;;;;;17.06;49.64;101953.38;5075592;28;20037;-71
2021/12/25 08:04:11;;;;;;;3.47;0.90;;;;;;;17.15;48.79;101963.19;5074257;28;20059;-71
2021/12/25 08:06:39;;;;;;;1.55;0.77;;;;;;;17.23;48.69;101950.81;5075014;28;20033;-72
2021/12/25 08:09:07;;;;;;;1.63;0.73;;;;;;;17.36;48.08;101959.81;5073759;28;20044;-70
2021/12/25 08:11:35;;;;;;;1.10;0.70;;;;;;;17.42;47.50;101955.41;5091697;28;20421;-70
2021/12/25 08:14:02;;;;;;;4.00;0.80;;;;;;;17.46;47.26;101954.53;5091231;28;20048;-70
2021/12/25 08:16:32;;;;;;;0.65;0.60;;;;;;;17.60;47.18;101954.59;5088695;28;20097;-73
2021/12/25 08:18:59;;;;;;;2.13;0.80;;;;;;;17.86;46.72;101954.78;5089990;28;20047;-73
2021/12/25 08:21:56;;;;;;;65.07;61.15;;;;;;;18.15;45.91;101952.25;5033197;28;20045;-73
2021/12/25 08:24:43;;;;;;;1.67;0.65;;;;;;;18.34;45.60;101948.75;5088934;28;20054;-73
2021/12/25 08:27:29;;;;;;;13.55;12.43;;;;;;;18.57;45.07;101951.53;5084786;28;20060;-74
2021/12/25 08:30:18;;;;;;;1.92;0.70;;;;;;;18.77;44.33;101951.56;5086280;28;20400;-74
2021/12/25 08:33:08;;;;;;;1.67;0.70;;;;;;;18.96;43.92;101953.34;5091192;28;20052;-74
2021/12/25 08:36:11;;;;;;;1.08;0.73;;;;;;;19.19;44.08;101947.97;5045930;28;20390;-73
2021/12/25 08:38:38;;;;;;;0.88;0.73;;;;;;;19.40;43.70;101947.94;5079380;28;20093;-74
2021/12/25 08:41:06;;;;;;;2.13;0.63;;;;;;;19.61;42.86;101947.94;5076338;28;20059;-75
2021/12/25 08:43:36;;;;;;;1.70;0.60;;;;;;;19.76;42.08;101944.31;5088391;28;20076;-75
2021/12/25 08:46:13;;;;;;;0.77;0.65;;;;;;;19.87;41.57;101945.19;5088638;28;20564;-75
2021/12/25 08:48:43;;;;;;;2.33;0.60;;;;;;;20.11;41.69;101930.78;5105946;28;20098;-75
2021/12/25 08:51:11;;;;;;;1.38;0.45;;;;;;;20.27;41.06;101935.16;5088354;28;20040;-76
2021/12/25 08:53:38;;;;;;;52.20;48.00;;;;;;;20.43;41.60;101939.56;5088451;28;20067;-74
2021/12/25 08:56:06;;;;;;;2.88;0.98;;;;;;;20.69;42.28;101937.59;5063131;28;20041;-74
2021/12/25 08:58:34;;;;;;;2.03;1.20;;;;;;;20.91;42.57;101940.13;5069743;28;20062;-74
2021/12/25 09:01:06;;;;;;;3.53;1.67;;;;;;;21.12;42.51;101928.31;5064927;28;20520;-74
2021/12/25 09:03:34;;;;;;;2.75;1.10;;;;;;;21.32;42.11;101923.69;5083044;28;20043;-75
2021/12/25 09:06:04;;;;;;;3.20;1.30;;;;;;;21.45;41.32;101933.41;5088111;28;20586;-75
2021/12/25 09:08:32;;;;;;;4.90;2.72;;;;;;;21.25;41.16;101927.34;5083706;28;20682;-74
2021/12/25 09:11:00;;;;;;;6.78;4.43;;;;;;;20.87;40.04;101933.88;5086616;28;20075;-73
2021/12/25 09:13:28;;;;;;;7.20;3.78;;;;;;;20.54;40.33;101932.34;5086312;28;20048;-74
2021/12/25 09:15:55;;;;;;;6.55;3.70;;;;;;;20.30;40.49;101927.09;5087350;28;20530;-73
2021/12/25 09:18:23;;;;;;;4.90;2.05;;;;;;;20.09;40.62;101925.41;5087381;28;20048;-73
2021/12/25 09:20:50;;;;;;;3.30;1.15;;;;;;;19.84;40.46;101916.59;5089724;28;20048;-74
2021/12/25 09:23:19;;;;;;;7.53;2.83;;;;;;;19.61;40.66;101917.59;5094072;28;20415;-74
2021/12/25 09:25:47;;;;;;;5.28;2.60;;;;;;;19.40;40.69;101919.38;5090000;28;20036;-74
2021/12/25 09:28:15;;;;;;;3.05;2.15;;;;;;;19.25;41.23;101914.03;5087912;28;20044;-74
2021/12/25 09:30:43;;;;;;;2.92;1.30;;;;;;;19.13;40.79;101908.72;5105938;28;20043;-74
2021/12/25 09:33:11;;;;;;;5.40;2.50;;;;;;;18.92;40.94;101904.25;5087169;28;20075;-73
2021/12/25 09:35:39;;;;;;;8.07;4.47;;;;;;;18.78;41.47;101899.78;5086316;28;20504;-74
2021/12/25 09:38:07;;;;;;;6.97;2.67;;;;;;;18.66;41.57;101898.91;5089022;28;20496;-73
2021/12/25 09:40:36;;;;;;;6.57;2.03;;;;;;;18.60;42.07;101881.97;5087574;28;20043;-73
2021/12/25 09:43:04;;;;;;;3.42;1.73;;;;;;;18.67;42.38;101894.44;5077948;28;20135;-73
2021/12/25 09:45:32;;;;;;;5.10;1.45;;;;;;;18.64;42.50;101884.63;5088177;28;20040;-73
2021/12/25 09:48:00;;;;;;;1.98;1.25;;;;;;;18.70;42.92;101879.31;5090041;28;20051;-73
2021/12/25 09:50:28;;;;;;;1.63;1.02;;;;;;;18.88;43.02;101889.09;5088815;28;20032;-73
2021/12/25 09:52:58;;;;;;;2.53;1.00;;;;;;;19.12;42.73;101880.16;5090606;28;20048;-73
2021/12/25 09:55:26;;;;;;;1.85;1.15;;;;;;;19.21;42.41;101884.59;5100605;28;20044;-73
2021/12/25 09:57:56;;;;;;;2.15;1.15;;;;;;;19.15;41.99;101880.16;5083219;28;20044;-73
2021/12/25 10:00:24;;;;;;;4.50;1.58;;;;;;;19.18;42.24;101879.25;5093906;28;20047;-72
2021/12/25 10:02:54;;;;;;;5.35;1.60;;;;;;;19.37;42.52;101870.28;5092189;28;20453;-73
2021/12/25 10:05:28;;;;;;;3.33;1.08;;;;;;;19.61;42.55;101870.25;5094252;28;20040;-72
2021/12/25 10:08:07;;;;;;;7.38;2.08;;;;;;;19.74;41.74;101869.31;5092352;28;20040;-73
2021/12/25 10:10:41;;;;;;;3.17;1.20;;;;;;;19.84;40.99;101860.31;5093338;28;20119;-72
2021/12/25 10:13:23;;;;;;;2.22;1.17;;;;;;;19.98;40.62;101856.66;5107008;28;20035;-72
2021/12/25 10:15:51;;;;;;;3.20;1.45;;;;;;;20.06;40.72;101854.84;5114008;27;20035;-73
2021/12/25 10:18:27;;;;;;;3.42;1.58;;;;;;;20.05;40.21;101855.72;5113702;28;20466;-72
2021/12/25 10:20:55;;;;;;;5.00;1.45;;;;;;;20.15;40.74;101857.47;5112595;28;20036;-72
2021/12/25 10:23:29;;;;;;;2.45;1.25;;;;;;;20.32;41.39;101850.19;5114321;27;20036;-72
2021/12/25 10:25:58;;;;;;;4.32;1.20;;;;;;;20.55;41.39;101845.56;5114371;27;20036;-73
2021/12/25 10:28:33;;;;;;;3.85;1.05;;;;;;;20.76;41.06;101851.66;5095617;28;20047;-74
2021/12/25 10:31:05;;;;;;;1.98;0.93;;;;;;;20.93;40.95;101850.63;5093663;28;20042;-72
2021/12/25 10:33:37;;;;;;;3.17;0.90;;;;;;;21.08;40.98;101846.88;5075772;28;20044;-72
2021/12/25 10:36:09;;;;;;;2.70;0.88;;;;;;;21.15;40.79;101845.91;5089968;28;20044;-72
2021/12/25 10:38:38;;;;;;;5.70;2.58;;;;;;;21.29;40.45;101838.63;5080864;28;20178;-73
2021/12/25 10:41:14;;;;;;;2.78;1.15;;;;;;;21.36;40.43;101834.97;5088075;28;20040;-72
2021/12/25 10:43:43;;;;;;;3.60;1.48;;;;;;;21.53;40.47;101839.25;5072971;28;20381;-72
2021/12/25 10:46:12;;;;;;;2.88;1.17;;;;;;;21.50;39.89;101833.91;5077950;28;20036;-74
2021/12/25 10:48:40;;;;;;;5.32;1.20;;;;;;;21.45;39.67;101834.88;5078930;28;20067;-70
2021/12/25 10:51:25;;;;;;;2.20;1.25;;;;;;;21.51;39.08;101830.31;5076188;28;20044;-71
2021/12/25 10:53:54;;;;;;;2.85;1.05;;;;;;;21.40;39.23;101825.94;5072180;28;20047;-70
2021/12/25 10:56:22;;;;;;;3.08;0.80;;;;;;;21.27;39.30;101821.63;5080586;28;20122;-71
2021/12/25 10:58:51;;;;;;;1.55;0.60;;;;;;;21.19;39.63;101823.53;5082679;28;20047;-71
2021/12/25 11:01:19;;;;;;;3.40;0.85;;;;;;;21.14;39.42;101817.25;5089006;27;20040;-71
2021/12/25 11:03:47;;;;;;;3.90;1.40;;;;;;;21.12;39.42;101821.78;5083868;28;20051;-72
2021/12/25 11:06:18;;;;;;;5.93;2.00;;;;;;;20.91;38.87;101819.31;5089313;28;20380;-72
2021/12/25 11:08:47;;;;;;;3.60;1.60;;;;;;;20.79;38.83;101817.66;5092061;28;20117;-72
2021/12/25 11:11:18;;;;;;;3.65;1.77;;;;;;;20.74;39.50;101814.13;5082635;28;20132;-72
2021/12/25 11:13:49;;;;;;;4.95;2.33;;;;;;;20.74;39.67;101816.81;5071234;28;20040;-73
2021/12/25 11:16:27;;;;;;;7.57;2.85;;;;;;;20.64;40.04;101807.94;5092063;28;20051;-73
2021/12/25 11:19:05;;;;;;;5.00;2.33;;;;;;;20.65;40.49;101816.88;5074127;28;20054;-73
2021/12/25 11:21:36;;;;;;;12.23;5.68;;;;;;;20.61;40.37;101807.94;5079213;28;20126;-72
2021/12/25 11:24:06;;;;;;;28.45;17.23;;;;;;;20.45;39.82;101798.28;5080225;28;20044;-72
2021/12/25 11:26:34;;;;;;;48.90;39.08;;;;;;;20.32;40.00;101791.19;5078918;28;20055;-72
2021/12/25 11:29:03;;;;;;;19.98;16.17;;;;;;;20.14;40.32;101802.06;5072080;28;20044;-72
2021/12/25 11:31:32;;;;;;;6.63;3.10;;;;;;;20.04;40.87;101800.31;5082854;28;20048;-72
2021/12/25 11:34:00;;;;;;;6.28;2.60;;;;;;;20.05;40.65;101802.09;5091366;28;20073;-71
2021/12/25 11:36:28;;;;;;;5.68;1.73;;;;;;;19.92;40.02;101792.38;5088592;28;20081;-71
2021/12/25 11:38:56;;;;;;;3.78;1.92;;;;;;;19.82;40.33;101794.22;5092012;28;20467;-72
2021/12/25 11:41:28;;;;;;;5.32;2.92;;;;;;;19.87;40.46;101787.94;5083352;28;20515;-72
2021/12/25 11:43:57;;;;;;;16.10;13.05;;;;;;;19.85;40.41;101788.84;5077155;28;20046;-72
2021/12/25 11:46:39;;;;;;;6.20;2.13;;;;;;;19.88;40.63;101779.00;5071870;28;20045;-71
2021/12/25 11:49:10;;;;;;;5.13;2.50;;;;;;;19.90;40.80;101781.66;5092138;28;20070;-71
2021/12/25 11:51:40;;;;;;;3.13;1.35;;;;;;;19.95;40.89;101777.16;5086530;28;20051;-72
2021/12/25 11:54:43;;;;;;;6.90;2.47;;;;;;;19.97;40.99;101771.78;5074757;28;20045;-72
2021/12/25 11:57:34;;;;;;;6.47;3.47;;;;;;;19.92;41.30;101768.25;5071015;28;20047;-72
2021/12/25 12:00:01;;;;;;;9.43;4.32;;;;;;;19.90;41.03;101777.19;5070064;28;20048;-72
2021/12/25 12:02:49;;;;;;;6.60;3.05;;;;;;;19.76;40.33;101775.47;5076202;28;20033;-72
2021/12/25 12:05:25;;;;;;;6.47;3.35;;;;;;;19.55;40.87;101775.63;5082171;28;20052;-72
2021/12/25 12:08:04;;;;;;;4.57;2.70;;;;;;;19.42;41.17;101775.66;5086360;28;20546;-73
2021/12/25 12:10:59;;;;;;;11.52;9.32;;;;;;;19.39;41.60;101769.41;5081328;28;20040;-72
2021/12/25 12:13:46;;;;;;;5.20;3.83;;;;;;;19.29;41.93;101770.34;5082883;28;20084;-73
2021/12/25 12:16:42;;;;;;;5.90;3.58;;;;;;;19.22;42.60;101780.19;5041916;28;20559;-72
2021/12/25 12:19:46;;;;;;;9.45;5.43;;;;;;;19.14;43.16;101781.09;5076751;28;20043;-73
2021/12/25 12:23:05;;;;;;;9.40;4.60;;;;;;;19.03;43.44;101773.97;5100814;28;20044;-73
2021/12/25 12:28:54;;;;;;;4.80;3.35;;;;;;;18.88;43.99;101766.00;5076280;28;20048;-72
2021/12/25 12:31:42;;;;;;;3.75;2.35;;;;;;;18.83;44.30;101769.59;5091138;28;20123;-72
2021/12/25 12:34:36;;;;;;;6.03;3.50;;;;;;;18.80;44.24;101775.84;5075130;28;20047;-72
2021/12/25 12:37:28;;;;;;;4.20;3.13;;;;;;;18.76;44.31;101770.50;5080549;28;20040;-72
2021/12/25 12:40:26;;;;;;;9.50;8.10;;;;;;;18.69;44.23;101772.28;5068885;28;20048;-73
2021/12/25 12:42:59;;;;;;;6.35;3.67;;;;;;;18.66;44.63;101774.97;5072071;28;20523;-72
2021/12/25 12:45:30;;;;;;;6.93;2.72;;;;;;;18.66;44.87;101773.19;5080289;28;20044;-72
2021/12/25 12:48:14;;;;;;;9.68;2.90;;;;;;;18.62;45.04;101779.44;5078082;28;20515;-72
2021/12/25 12:50:43;;;;;;;4.85;2.13;;;;;;;18.60;45.16;101774.97;5090485;28;20036;-73
2021/12/25 12:53:12;;;;;;;5.60;2.40;;;;;;;18.61;45.84;101776.75;5082031;28;20051;-72
2021/12/25 12:55:42;;;;;;;7.35;2.97;;;;;;;18.66;46.15;101780.31;5070130;28;20131;-72
2021/12/25 12:58:16;;;;;;;6.13;3.63;;;;;;;18.68;45.95;101787.44;5103537;28;20041;-72